Time;durP1;ratioP1;P1;durP2;ratioP2;P2;SDS_P1;SDS_P2;PMS_P1;PMS_P2;Temp;Humidity;BMP_temperature;BMP_pressure;BME280_temperature;BME280_humidity;BME280_pressure;Samples;Min_cycle;Max_cycle;Signal;HPM_P1;HPM_P2
2022/07/20 00:00:37;;;;;;;10.65;2.58;;;;;;;14.78;65.35;99406.78;5051223;28;20045;-61
2022/07/20 00:03:07;;;;;;;3.90;2.13;;;;;;;14.82;65.47;99404.63;5052688;28;20041;-63
2022/07/20 00:05:33;;;;;;;11.20;3.30;;;;;;;14.73;65.50;99396.50;5052526;28;20187;-64
2022/07/20 00:07:59;;;;;;;10.27;2.65;;;;;;;14.59;65.35;99375.53;5052502;28;20090;-61
2022/07/20 00:13:10;;;;;;;7.65;2.92;;;;;;;14.73;65.36;99401.91;5051166;28;20465;-62
2022/07/20 00:15:36;;;;;;;11.07;3.90;;;;;;;14.74;65.31;99402.72;5052130;28;20391;-60
2022/07/20 00:18:01;;;;;;;7.47;2.80;;;;;;;14.68;65.08;99400.66;5052993;28;20028;-61
2022/07/20 00:20:27;;;;;;;4.00;2.10;;;;;;;14.69;64.98;99402.34;5050668;28;20033;-60
2022/07/20 00:22:53;;;;;;;7.32;3.53;;;;;;;14.66;65.30;99392.72;5051974;28;20057;-61
2022/07/20 00:25:19;;;;;;;3.83;2.25;;;;;;;14.62;65.23;99394.06;5052238;28;20055;-62
2022/07/20 00:27:44;;;;;;;11.10;3.05;;;;;;;14.59;65.09;99389.00;5050900;28;20032;-61
2022/07/20 00:30:11;;;;;;;11.63;4.25;;;;;;;14.58;65.57;99398.09;5051723;28;20033;-62
2022/07/20 00:32:38;;;;;;;5.32;2.33;;;;;;;14.55;65.47;99390.31;5052098;28;20112;-59
2022/07/20 00:35:09;;;;;;;3.63;2.13;;;;;;;14.43;65.11;99368.22;5052683;28;20037;-61
2022/07/20 00:37:34;;;;;;;5.90;2.38;;;;;;;14.49;65.45;99383.72;5034060;28;20503;-63
2022/07/20 00:40:00;;;;;;;5.45;2.10;;;;;;;14.46;65.41;99387.56;5052004;28;20033;-61
2022/07/20 00:42:25;;;;;;;4.78;2.00;;;;;;;14.41;65.46;99378.31;5051908;28;20523;-61
2022/07/20 00:44:51;;;;;;;10.07;2.22;;;;;;;14.42;65.41;99378.13;5051944;28;20037;-60
2022/07/20 00:47:16;;;;;;;7.72;2.00;;;;;;;14.40;65.19;99366.66;5051771;28;20024;-62
2022/07/20 00:49:42;;;;;;;3.95;1.90;;;;;;;14.39;65.20;99367.69;5051760;28;20365;-62
2022/07/20 00:52:08;;;;;;;5.05;2.80;;;;;;;14.29;65.34;99357.00;5051901;28;20024;-61
2022/07/20 00:54:34;;;;;;;5.70;2.17;;;;;;;14.35;65.68;99359.09;5052155;28;20045;-61
2022/07/20 00:56:59;;;;;;;6.80;2.20;;;;;;;14.25;65.85;99349.44;5051607;28;20466;-63
2022/07/20 00:59:25;;;;;;;4.15;2.15;;;;;;;14.28;65.78;99354.50;5050242;28;20368;-60
2022/07/20 01:01:51;;;;;;;4.32;1.92;;;;;;;14.13;65.74;99333.53;5051839;28;20615;-61
2022/07/20 01:04:16;;;;;;;8.60;2.20;;;;;;;14.25;65.71;99358.34;5051775;28;20044;-61
2022/07/20 01:06:43;;;;;;;8.18;2.80;;;;;;;14.26;66.08;99361.91;5050079;28;20457;-61
2022/07/20 01:09:08;;;;;;;7.60;3.20;;;;;;;14.20;66.20;99342.66;5051248;28;20036;-60
2022/07/20 01:11:35;;;;;;;6.25;2.20;;;;;;;14.05;66.14;99328.94;5051770;28;20086;-61
2022/07/20 01:14:06;;;;;;;2.58;1.88;;;;;;;14.20;66.21;99345.34;5051450;28;20040;-60
2022/07/20 01:16:32;;;;;;;11.05;2.85;;;;;;;14.19;66.29;99350.91;5050320;28;20033;-61
2022/07/20 01:18:58;;;;;;;4.35;2.00;;;;;;;14.14;66.27;99331.72;5051095;28;20043;-61
2022/07/20 01:21:24;;;;;;;3.53;1.83;;;;;;;14.10;66.25;99328.47;5051415;28;20043;-61
2022/07/20 01:23:49;;;;;;;2.85;2.20;;;;;;;14.16;66.27;99324.31;5051434;28;20033;-61
2022/07/20 01:26:19;;;;;;;3.80;1.95;;;;;;;14.23;66.36;99329.88;5050595;28;20119;-61
2022/07/20 01:28:45;;;;;;;6.35;2.00;;;;;;;14.20;66.11;99325.69;5049638;28;20024;-61
2022/07/20 01:31:11;;;;;;;5.45;1.90;;;;;;;14.21;66.06;99320.13;5051273;28;20025;-61
2022/07/20 01:33:37;;;;;;;6.47;2.00;;;;;;;14.17;65.69;99309.84;5050293;28;20354;-60
2022/07/20 01:36:03;;;;;;;5.10;2.17;;;;;;;14.35;65.85;99323.22;5051594;28;20037;-60
2022/07/20 01:38:29;;;;;;;4.32;1.75;;;;;;;14.39;65.82;99323.75;5050894;28;20106;-60
2022/07/20 01:40:54;;;;;;;2.55;1.75;;;;;;;14.39;65.73;99311.13;5050908;28;20029;-61
2022/07/20 01:43:20;;;;;;;3.92;2.28;;;;;;;14.43;65.53;99312.47;5050716;28;20056;-61
2022/07/20 01:45:45;;;;;;;5.65;2.10;;;;;;;14.48;65.41;99303.91;5051135;28;20087;-61
2022/07/20 01:48:11;;;;;;;3.45;2.20;;;;;;;14.41;65.19;99289.44;5050843;28;20036;-60
2022/07/20 01:50:38;;;;;;;3.28;2.05;;;;;;;14.58;65.00;99311.88;5051050;28;20082;-60
2022/07/20 01:53:04;;;;;;;2.97;1.90;;;;;;;14.60;64.84;99309.84;5050885;28;20033;-60
2022/07/20 01:55:29;;;;;;;3.63;1.73;;;;;;;14.64;64.74;99306.69;5050844;28;20112;-61
2022/07/20 01:57:55;;;;;;;4.22;1.60;;;;;;;14.69;64.20;99308.03;5049652;28;20116;-60
2022/07/20 02:00:20;;;;;;;4.18;1.30;;;;;;;14.67;64.06;99292.03;5050754;28;20087;-61
2022/07/20 02:02:46;;;;;;;3.55;1.42;;;;;;;14.69;63.96;99290.00;5050767;28;20048;-62
2022/07/20 02:05:12;;;;;;;3.30;1.63;;;;;;;14.67;64.09;99289.34;5051267;28;20040;-60
2022/07/20 02:07:38;;;;;;;2.35;1.52;;;;;;;14.67;64.09;99289.34;5050915;28;20024;-60
2022/07/20 02:10:07;;;;;;;3.03;1.48;;;;;;;14.69;64.06;99281.94;5050515;28;20040;-60
2022/07/20 02:12:33;;;;;;;2.63;1.67;;;;;;;14.67;64.24;99281.25;5051019;28;20065;-61
2022/07/20 02:14:58;;;;;;;7.07;1.50;;;;;;;14.69;63.95;99276.53;5050917;28;20064;-61
2022/07/20 02:17:24;;;;;;;4.88;1.55;;;;;;;14.72;63.98;99264.63;5050333;28;20136;-60
2022/07/20 02:19:49;;;;;;;9.80;1.63;;;;;;;14.81;63.75;99269.03;5050532;28;20021;-61
2022/07/20 02:22:15;;;;;;;7.05;2.10;;;;;;;14.91;63.53;99277.81;5050495;28;20025;-62
2022/07/20 02:24:40;;;;;;;5.93;1.70;;;;;;;15.07;63.32;99273.44;5049155;28;20032;-60
2022/07/20 02:27:06;;;;;;;4.10;1.98;;;;;;;15.30;62.49;99257.47;5050386;28;20373;-61
2022/07/20 02:29:31;;;;;;;6.80;2.05;;;;;;;15.39;61.82;99222.38;5050798;28;20477;-61
2022/07/20 02:31:57;;;;;;;4.18;2.00;;;;;;;15.74;61.14;99253.53;5049521;28;20033;-61
2022/07/20 02:34:22;;;;;;;3.03;1.70;;;;;;;15.97;60.43;99254.72;5050469;28;20037;-61
2022/07/20 02:36:47;;;;;;;7.07;2.55;;;;;;;16.21;59.72;99243.81;5049679;28;20412;-60
2022/07/20 02:39:13;;;;;;;5.80;2.58;;;;;;;16.52;58.75;99249.41;5053293;28;20080;-62
2022/07/20 02:41:38;;;;;;;4.80;2.50;;;;;;;16.69;57.93;99234.81;5053069;28;20025;-60
2022/07/20 02:44:04;;;;;;;2.42;1.58;;;;;;;16.93;57.25;99235.66;5053888;28;20435;-60
2022/07/20 02:46:29;;;;;;;3.55;1.67;;;;;;;17.11;57.02;99237.22;5054100;28;20029;-62
2022/07/20 02:48:55;;;;;;;3.58;2.15;;;;;;;17.30;56.35;99220.50;5054201;28;20100;-60
2022/07/20 02:51:20;;;;;;;4.15;2.10;;;;;;;17.48;55.76;99216.63;5054058;28;20453;-60
2022/07/20 02:53:46;;;;;;;3.92;1.63;;;;;;;17.52;55.16;99199.00;5052263;28;20036;-61
2022/07/20 02:56:11;;;;;;;2.80;2.17;;;;;;;17.67;55.08;99195.47;5054032;28;20037;-60
2022/07/20 02:58:37;;;;;;;2.25;1.80;;;;;;;17.83;54.58;99208.81;5054086;28;20430;-61
2022/07/20 03:01:03;;;;;;;3.47;1.15;;;;;;;17.88;54.82;99211.81;5052711;28;20084;-61
2022/07/20 03:03:29;;;;;;;3.65;1.40;;;;;;;17.93;54.58;99198.56;5053424;28;20075;-60
2022/07/20 03:05:54;;;;;;;3.78;1.83;;;;;;;17.93;54.69;99193.13;5053884;28;20386;-60
2022/07/20 03:08:20;;;;;;;5.07;1.85;;;;;;;17.99;54.65;99196.97;5035910;28;20025;-61
2022/07/20 03:10:45;;;;;;;1.77;1.35;;;;;;;18.04;54.38;99189.16;5052166;28;20461;-60
2022/07/20 03:13:11;;;;;;;2.85;1.48;;;;;;;18.17;54.25;99193.03;5053920;28;20071;-60
2022/07/20 03:15:36;;;;;;;2.60;1.40;;;;;;;18.23;54.04;99195.03;5052186;28;20079;-61
2022/07/20 03:18:02;;;;;;;2.05;1.58;;;;;;;18.28;53.99;99199.84;5053568;28;20033;-60
2022/07/20 03:20:31;;;;;;;3.38;1.85;;;;;;;18.35;53.98;99196.19;5053287;28;20025;-61
2022/07/20 03:22:57;;;;;;;4.78;1.80;;;;;;;18.18;54.23;99168.47;5053200;28;20036;-62
2022/07/20 03:25:24;;;;;;;3.15;1.63;;;;;;;18.30;54.23;99197.78;5053054;28;20115;-60
2022/07/20 03:27:57;;;;;;;1.70;1.52;;;;;;;18.21;54.79;99173.53;5053325;28;20037;-60
2022/07/20 03:30:23;;;;;;;4.30;1.58;;;;;;;18.22;54.71;99191.47;5053159;28;20055;-61
2022/07/20 03:32:49;;;;;;;5.00;1.55;;;;;;;18.26;54.99;99186.50;5052951;28;20045;-60
2022/07/20 03:35:15;;;;;;;3.58;1.58;;;;;;;18.34;54.69;99188.28;5053427;28;20036;-62
2022/07/20 03:37:41;;;;;;;2.58;1.73;;;;;;;18.48;54.73;99183.84;5053097;28;20028;-62
2022/07/20 03:40:07;;;;;;;1.85;1.45;;;;;;;18.63;54.45;99170.25;5053017;28;20085;-61
2022/07/20 03:42:33;;;;;;;4.32;1.45;;;;;;;18.78;54.04;99181.03;5052666;28;20033;-61
2022/07/20 03:44:59;;;;;;;2.97;1.65;;;;;;;18.89;53.79;99179.66;5052644;28;20132;-61
2022/07/20 03:47:25;;;;;;;4.60;1.45;;;;;;;18.98;53.60;99172.25;5051627;28;20086;-61
2022/07/20 03:49:51;;;;;;;6.30;1.90;;;;;;;18.95;53.68;99173.47;5052312;28;20025;-60
2022/07/20 03:52:18;;;;;;;1.58;1.48;;;;;;;18.91;53.77;99183.84;5052656;28;20469;-61
2022/07/20 03:54:43;;;;;;;3.83;1.58;;;;;;;18.81;54.28;99183.34;5053435;28;20116;-61
2022/07/20 03:57:09;;;;;;;3.25;1.40;;;;;;;18.65;54.64;99179.84;5051253;28;20228;-62
2022/07/20 03:59:35;;;;;;;4.97;2.00;;;;;;;18.56;55.79;99177.44;5051341;28;20033;-60
2022/07/20 04:02:00;;;;;;;3.30;1.92;;;;;;;18.38;56.22;99170.59;5052691;28;20139;-61
2022/07/20 04:04:27;;;;;;;4.05;1.60;;;;;;;18.26;56.62;99170.25;5050962;28;20156;-61
2022/07/20 04:06:53;;;;;;;5.80;1.73;;;;;;;18.11;57.26;99167.56;5052511;28;20029;-61
2022/07/20 04:09:43;;;;;;;5.55;1.90;;;;;;;17.94;58.04;99162.31;5052562;28;20069;-61
2022/07/20 04:12:05;;;;;;;2.13;1.80;;;;;;;17.88;58.97;99168.50;5052007;28;20044;-60
2022/07/20 04:14:30;;;;;;;3.83;1.67;;;;;;;17.78;59.57;99157.09;5052313;28;20037;-61
2022/07/20 04:16:56;;;;;;;4.93;1.80;;;;;;;17.60;59.48;99139.38;5052657;28;20385;-62
2022/07/20 04:19:21;;;;;;;7.35;1.85;;;;;;;17.72;59.80;99152.44;5050696;28;20025;-61
2022/07/20 04:21:47;;;;;;;5.15;1.63;;;;;;;17.72;59.61;99144.31;5052475;28;20098;-61
2022/07/20 04:24:12;;;;;;;9.13;1.77;;;;;;;17.76;59.75;99140.19;5052224;28;20079;-61
2022/07/20 04:26:37;;;;;;;3.92;1.60;;;;;;;17.75;59.51;99135.81;5052005;28;20487;-61
2022/07/20 04:29:03;;;;;;;3.83;1.80;;;;;;;17.81;59.61;99128.81;5051919;28;20088;-60
2022/07/20 04:31:28;;;;;;;3.72;1.42;;;;;;;17.82;59.42;99125.91;5051818;28;20104;-60
2022/07/20 04:33:54;;;;;;;6.32;1.52;;;;;;;17.78;59.65;99130.03;5052037;28;20025;-61
2022/07/20 04:36:20;;;;;;;5.50;2.10;;;;;;;17.69;59.77;99118.44;5052183;28;20377;-61
2022/07/20 04:38:45;;;;;;;2.58;1.80;;;;;;;17.61;59.95;99118.56;5052059;28;20059;-60
2022/07/20 04:41:11;;;;;;;4.13;1.67;;;;;;;17.51;60.24;99108.00;5051773;28;20465;-61
2022/07/20 04:43:36;;;;;;;2.60;1.65;;;;;;;17.41;60.63;99096.63;5051888;28;20433;-61
2022/07/20 04:46:02;;;;;;;4.38;1.95;;;;;;;17.32;61.31;99099.41;5050572;28;20032;-61
2022/07/20 04:48:27;;;;;;;6.05;1.95;;;;;;;17.30;61.20;99096.06;5051321;28;20086;-60
2022/07/20 04:50:52;;;;;;;4.82;2.50;;;;;;;17.32;61.62;99112.94;5051478;28;20057;-61
2022/07/20 04:53:18;;;;;;;3.83;1.77;;;;;;;17.40;61.52;99119.31;5052079;28;20033;-61
2022/07/20 04:55:43;;;;;;;7.03;2.40;;;;;;;17.30;61.31;99085.25;5051768;28;20229;-62
2022/07/20 04:58:09;;;;;;;3.78;1.75;;;;;;;17.62;61.01;99123.81;5051252;28;20515;-61
2022/07/20 05:00:35;;;;;;;3.63;2.25;;;;;;;17.56;61.47;99099.34;5050575;28;20049;-61
2022/07/20 05:03:00;;;;;;;7.38;2.20;;;;;;;17.75;61.24;99120.44;5051380;28;20045;-62
2022/07/20 05:05:25;;;;;;;7.03;2.50;;;;;;;17.81;61.46;99124.22;5051655;28;20052;-61
2022/07/20 05:07:51;;;;;;;4.88;2.47;;;;;;;17.70;61.34;99086.81;5051489;28;20425;-61
2022/07/20 05:10:16;;;;;;;8.35;3.55;;;;;;;17.88;61.84;99117.06;5051666;28;20025;-61
2022/07/20 05:12:42;;;;;;;5.68;3.45;;;;;;;17.89;61.93;99120.59;5051494;28;20036;-61
2022/07/20 05:15:08;;;;;;;8.85;3.67;;;;;;;17.89;61.69;99109.75;5051491;28;20032;-61
2022/07/20 05:17:33;;;;;;;6.20;2.85;;;;;;;17.83;61.89;99111.34;5051125;28;20116;-61
2022/07/20 05:19:59;;;;;;;4.22;2.60;;;;;;;17.81;62.42;99107.97;5049866;28;20138;-61
2022/07/20 05:22:24;;;;;;;4.47;2.42;;;;;;;17.77;62.26;99103.97;5051293;28;20025;-61
2022/07/20 05:24:49;;;;;;;4.18;2.53;;;;;;;17.72;62.80;99088.28;5051493;28;20485;-60
2022/07/20 05:27:15;;;;;;;5.13;3.45;;;;;;;17.66;62.63;99086.34;5051048;28;20035;-61
2022/07/20 05:29:40;;;;;;;4.88;2.30;;;;;;;17.57;63.26;99084.78;5051036;28;20541;-61
2022/07/20 05:32:08;;;;;;;2.13;1.88;;;;;;;17.56;63.42;99083.91;5051051;28;20083;-61
2022/07/20 05:34:33;;;;;;;6.22;2.08;;;;;;;17.46;63.52;99084.19;5050863;28;20135;-61
2022/07/20 05:36:59;;;;;;;3.80;2.28;;;;;;;17.34;64.17;99089.25;5050989;28;20021;-61
2022/07/20 05:39:24;;;;;;;5.25;2.30;;;;;;;17.20;64.47;99057.63;5033120;28;20153;-60
2022/07/20 05:41:50;;;;;;;2.50;2.22;;;;;;;17.20;65.04;99063.88;5049982;28;20032;-60
2022/07/20 05:44:15;;;;;;;4.07;2.28;;;;;;;17.15;65.69;99057.34;5049586;28;20040;-60
2022/07/20 05:46:41;;;;;;;5.60;2.58;;;;;;;17.13;66.02;99062.13;5051037;28;20334;-61
2022/07/20 05:49:06;;;;;;;6.22;2.70;;;;;;;17.08;66.14;99055.38;5050871;28;20029;-61
2022/07/20 05:51:34;;;;;;;6.00;3.17;;;;;;;17.05;66.50;99055.75;5051011;28;20388;-62
2022/07/20 05:53:59;;;;;;;6.90;3.40;;;;;;;17.04;66.57;99048.66;5050940;28;20033;-61
2022/07/20 05:56:25;;;;;;;3.92;3.53;;;;;;;17.07;66.96;99044.75;5049525;28;20036;-60
2022/07/20 05:58:50;;;;;;;6.47;3.63;;;;;;;17.13;66.42;99041.31;5050951;28;20041;-60
2022/07/20 06:01:16;;;;;;;5.40;3.70;;;;;;;17.16;65.94;99042.81;5032846;28;20049;-60
2022/07/20 06:03:41;;;;;;;5.15;3.38;;;;;;;17.09;65.83;98996.72;5049609;28;20041;-61
2022/07/20 06:06:07;;;;;;;6.22;3.58;;;;;;;17.31;65.75;99004.94;5049681;28;20082;-62
2022/07/20 06:08:32;;;;;;;4.47;2.95;;;;;;;17.69;64.46;99006.63;5050612;28;20059;-61
2022/07/20 06:10:58;;;;;;;3.70;2.60;;;;;;;18.03;63.34;99007.84;5050667;28;20492;-61
2022/07/20 06:13:23;;;;;;;4.38;2.20;;;;;;;18.20;62.57;99008.44;5054048;28;20376;-63
2022/07/20 06:15:49;;;;;;;4.15;1.63;;;;;;;18.29;62.22;98995.59;5054674;28;20473;-60
2022/07/20 06:18:14;;;;;;;4.28;1.58;;;;;;;18.21;61.76;98978.44;5054467;28;20033;-61
2022/07/20 06:20:40;;;;;;;2.70;1.50;;;;;;;18.34;61.53;98988.56;5053275;28;20035;-61
2022/07/20 06:23:05;;;;;;;3.30;1.30;;;;;;;18.45;61.19;98978.25;5054425;28;20068;-61
2022/07/20 06:25:31;;;;;;;2.38;1.30;;;;;;;18.54;60.85;98978.91;5052704;28;20556;-61
2022/07/20 06:27:58;;;;;;;2.83;1.55;;;;;;;18.63;60.89;98986.72;5054496;28;20104;-61
2022/07/20 06:30:24;;;;;;;3.30;2.08;;;;;;;18.74;60.88;98988.03;5054848;28;20041;-60
2022/07/20 06:32:50;;;;;;;3.60;1.90;;;;;;;18.74;60.36;98954.69;5054463;28;20457;-61
2022/07/20 06:35:16;;;;;;;5.15;2.10;;;;;;;19.13;59.48;98974.94;5054180;28;20036;-62
2022/07/20 06:37:42;;;;;;;2.88;2.03;;;;;;;19.50;58.49;98986.41;5054538;28;20385;-60
2022/07/20 06:40:08;;;;;;;3.53;2.20;;;;;;;19.78;57.61;98976.47;5054452;28;20037;-62
2022/07/20 06:42:34;;;;;;;4.38;2.40;;;;;;;20.26;56.47;98969.25;5052827;28;20465;-61
2022/07/20 06:45:00;;;;;;;2.78;2.05;;;;;;;21.01;54.25;98969.00;5054078;28;20044;-61
2022/07/20 06:47:25;;;;;;;2.35;1.58;;;;;;;21.51;52.09;98945.78;5053150;28;20029;-62
2022/07/20 06:49:51;;;;;;;3.65;1.27;;;;;;;22.74;48.99;98961.91;5054744;28;20052;-64
2022/07/20 06:52:17;;;;;;;3.80;1.63;;;;;;;24.28;45.21;98962.91;5036587;28;20025;-63
2022/07/20 06:54:43;;;;;;;3.47;1.77;;;;;;;25.21;42.84;98952.22;5052758;28;20118;-62
2022/07/20 06:57:08;;;;;;;3.75;1.60;;;;;;;25.95;41.16;98925.16;5054057;28;20405;-61
2022/07/20 06:59:37;;;;;;;1.80;1.48;;;;;;;27.03;38.57;98953.47;5052646;28;20025;-62
2022/07/20 07:02:03;;;;;;;2.50;1.60;;;;;;;26.81;39.15;98934.19;5053817;28;20053;-61
2022/07/20 07:04:28;;;;;;;3.70;1.80;;;;;;;26.32;40.09;98943.06;5052449;28;20040;-62
2022/07/20 07:06:54;;;;;;;2.83;1.75;;;;;;;25.62;41.40;98944.03;5054332;28;20040;-61
2022/07/20 07:09:19;;;;;;;2.55;1.90;;;;;;;24.80;42.93;98938.47;5052515;28;20431;-61
2022/07/20 07:11:45;;;;;;;4.90;2.00;;;;;;;24.08;44.89;98937.56;5053704;28;20032;-61
2022/07/20 07:14:10;;;;;;;3.50;2.17;;;;;;;23.56;46.02;98935.34;5053350;28;20083;-62
2022/07/20 07:16:36;;;;;;;2.63;1.83;;;;;;;23.07;46.52;98925.22;5053250;28;20479;-62
2022/07/20 07:19:02;;;;;;;4.75;2.13;;;;;;;22.53;47.82;98924.94;5053805;28;20052;-61
2022/07/20 07:21:27;;;;;;;3.95;1.90;;;;;;;22.03;49.23;98925.78;5053543;28;20070;-62
2022/07/20 07:23:53;;;;;;;3.22;1.95;;;;;;;21.65;49.96;98920.16;5052460;28;20029;-61
2022/07/20 07:26:20;;;;;;;2.13;1.60;;;;;;;21.47;50.44;98928.22;5052024;28;20397;-61
2022/07/20 07:28:46;;;;;;;6.43;1.92;;;;;;;21.55;50.63;98918.91;5053167;28;20064;-60
2022/07/20 07:31:12;;;;;;;3.63;1.95;;;;;;;21.55;50.27;98919.78;5053276;28;20122;-61
2022/07/20 07:33:38;;;;;;;5.35;1.90;;;;;;;21.61;49.16;98858.16;5053155;28;20469;-60
2022/07/20 07:36:04;;;;;;;2.70;1.63;;;;;;;22.53;47.58;98914.03;5053028;28;20132;-62
2022/07/20 07:38:29;;;;;;;6.20;1.50;;;;;;;22.74;46.71;98885.50;5053131;28;20112;-61
2022/07/20 07:40:55;;;;;;;2.85;1.60;;;;;;;23.04;46.15;98890.19;5053029;28;20112;-61
2022/07/20 07:43:21;;;;;;;4.95;2.05;;;;;;;23.41;45.38;98896.72;5052977;28;20036;-60
2022/07/20 07:45:46;;;;;;;2.33;1.67;;;;;;;25.21;41.18;98883.75;5052817;28;20051;-60
2022/07/20 07:48:12;;;;;;;1.73;1.20;;;;;;;28.97;34.13;98878.78;5034981;28;20369;-60
2022/07/20 07:50:39;;;;;;;2.97;1.30;;;;;;;32.36;28.09;98884.09;5052957;28;20067;-62
2022/07/20 07:53:07;;;;;;;3.15;1.38;;;;;;;34.42;24.69;98868.47;5052642;28;20056;-61
2022/07/20 07:55:34;;;;;;;0.80;0.75;;;;;;;36.77;20.74;98872.03;5052657;28;20055;-61
2022/07/20 07:57:59;;;;;;;2.20;0.88;;;;;;;39.10;18.44;98857.97;5051636;28;20025;-61
2022/07/20 08:00:25;;;;;;;1.80;0.70;;;;;;;40.26;16.77;98867.88;5052703;28;20442;-62
2022/07/20 08:02:51;;;;;;;0.90;0.80;;;;;;;41.42;15.95;98870.84;5052388;28;20045;-61
2022/07/20 08:05:16;;;;;;;1.52;0.80;;;;;;;41.99;15.32;98860.44;5052279;28;20412;-61
2022/07/20 08:07:42;;;;;;;1.90;1.00;;;;;;;40.16;16.58;98860.72;5052395;28;20086;-61
2022/07/20 08:10:08;;;;;;;0.98;0.90;;;;;;;37.94;18.68;98866.28;5052323;28;20024;-62
2022/07/20 08:12:35;;;;;;;2.13;1.20;;;;;;;36.65;19.61;98854.28;5052000;28;20457;-61
2022/07/20 08:15:00;;;;;;;1.13;0.95;;;;;;;36.13;20.59;98850.06;5051182;28;20116;-64
2022/07/20 08:17:26;;;;;;;3.53;1.00;;;;;;;35.41;20.93;98847.03;5051085;28;20119;-61
2022/07/20 08:19:52;;;;;;;1.88;1.00;;;;;;;33.63;22.91;98820.94;5051737;28;20032;-61
2022/07/20 08:22:18;;;;;;;1.83;1.00;;;;;;;34.25;22.04;98857.16;5052015;28;20437;-62
2022/07/20 08:24:44;;;;;;;1.95;1.00;;;;;;;34.88;21.18;98836.22;5052109;28;20122;-61
2022/07/20 08:27:09;;;;;;;1.15;0.80;;;;;;;34.03;21.87;98823.34;5052017;28;20473;-61
2022/07/20 08:29:35;;;;;;;0.82;0.75;;;;;;;32.88;23.17;98839.19;5051815;28;20029;-64
2022/07/20 08:32:00;;;;;;;0.85;0.65;;;;;;;31.79;24.69;98843.00;5052099;28;20041;-62
2022/07/20 08:34:26;;;;;;;2.35;1.00;;;;;;;30.72;25.73;98830.31;5052199;28;20032;-62
2022/07/20 08:36:51;;;;;;;2.35;0.90;;;;;;;29.36;27.41;98795.63;5033792;28;20029;-61
2022/07/20 08:39:17;;;;;;;1.02;0.90;;;;;;;28.25;29.33;98821.34;5051774;28;20456;-62
2022/07/20 08:41:43;;;;;;;1.80;0.80;;;;;;;27.29;30.90;98821.06;5051732;28;20105;-61
2022/07/20 08:44:08;;;;;;;1.30;0.90;;;;;;;26.62;31.72;98832.88;5051838;28;20040;-60
2022/07/20 08:46:34;;;;;;;0.93;0.70;;;;;;;26.22;32.81;98823.84;5051757;28;20116;-61
2022/07/20 08:49:01;;;;;;;0.82;0.70;;;;;;;26.11;32.12;98826.66;5051808;28;20049;-61
2022/07/20 08:51:27;;;;;;;1.73;0.88;;;;;;;25.84;33.27;98821.84;5051178;28;20074;-60
2022/07/20 08:53:54;;;;;;;0.82;0.80;;;;;;;25.82;34.00;98833.06;5051741;28;20045;-60
2022/07/20 08:56:19;;;;;;;1.40;1.10;;;;;;;26.04;33.96;98824.06;5051748;28;20025;-62
2022/07/20 08:58:45;;;;;;;5.20;1.20;;;;;;;26.28;33.65;98827.50;5051528;28;20032;-62
2022/07/20 09:01:15;;;;;;;1.88;1.10;;;;;;;26.53;33.46;98839.09;5051543;28;20405;-63
2022/07/20 09:03:41;;;;;;;2.85;1.10;;;;;;;26.50;33.60;98835.75;5051626;28;20122;-62
2022/07/20 09:06:08;;;;;;;2.35;1.10;;;;;;;26.35;33.56;98827.31;5051332;28;20041;-63
2022/07/20 09:08:34;;;;;;;3.50;1.13;;;;;;;25.96;34.33;98825.34;5051518;28;20040;-63
2022/07/20 09:11:01;;;;;;;3.00;1.00;;;;;;;25.51;34.76;98805.13;5051564;28;20037;-60
2022/07/20 09:13:30;;;;;;;2.00;1.00;;;;;;;25.51;35.20;98819.66;5050240;28;20036;-64
2022/07/20 09:15:56;;;;;;;0.85;0.75;;;;;;;25.62;35.93;98831.66;5050099;28;20025;-62
2022/07/20 09:18:24;;;;;;;1.15;0.90;;;;;;;25.70;34.82;98826.81;5051286;28;20033;-61
2022/07/20 09:20:58;;;;;;;1.15;0.82;;;;;;;25.85;34.62;98834.47;5050760;28;20029;-62
2022/07/20 09:23:26;;;;;;;2.45;0.90;;;;;;;25.80;34.51;98832.47;5051163;28;20543;-61
2022/07/20 09:25:59;;;;;;;2.70;0.80;;;;;;;26.08;34.73;98833.47;5051032;28;20032;-62
2022/07/20 09:28:43;;;;;;;1.08;0.70;;;;;;;26.33;34.17;98824.00;5050943;28;20037;-62
2022/07/20 09:31:26;;;;;;;0.68;0.60;;;;;;;26.50;33.15;98818.47;5049828;28;20068;-62
2022/07/20 09:34:15;;;;;;;0.80;0.80;;;;;;;26.56;33.12;98802.91;5050928;28;20484;-61
2022/07/20 09:36:46;;;;;;;2.05;0.63;;;;;;;26.74;33.50;98826.47;5049639;28;20395;-60
2022/07/20 09:39:15;;;;;;;4.20;0.80;;;;;;;26.42;33.62;98816.97;5050484;28;20028;-61
2022/07/20 09:41:51;;;;;;;2.20;0.82;;;;;;;26.20;34.23;98815.03;5049937;28;20021;-62
2022/07/20 09:44:22;;;;;;;1.95;0.80;;;;;;;25.91;34.66;98811.53;5048782;28;20036;-61
2022/07/20 09:46:48;;;;;;;2.30;0.70;;;;;;;25.57;35.58;98812.38;5050670;28;20365;-61
2022/07/20 09:49:14;;;;;;;1.15;0.70;;;;;;;25.47;35.87;98814.91;5053989;28;20040;-61
2022/07/20 09:51:42;;;;;;;1.80;0.80;;;;;;;25.45;35.98;98803.34;5054107;28;20381;-61
2022/07/20 09:54:10;;;;;;;3.30;0.65;;;;;;;25.31;36.18;98802.84;5054225;28;20528;-60
2022/07/20 09:56:38;;;;;;;0.88;0.70;;;;;;;25.19;36.95;98800.16;5054476;28;20389;-61
2022/07/20 09:59:07;;;;;;;0.80;0.70;;;;;;;24.96;37.16;98795.59;5054633;28;20025;-61
2022/07/20 10:01:36;;;;;;;0.60;0.50;;;;;;;24.59;36.40;98796.75;5055098;28;20102;-62
2022/07/20 10:04:05;;;;;;;1.00;0.77;;;;;;;24.32;36.78;98802.72;5053566;28;20076;-63
2022/07/20 10:06:31;;;;;;;0.90;0.47;;;;;;;24.31;36.13;98784.66;5053119;28;20037;-62
2022/07/20 10:08:57;;;;;;;0.30;0.30;;;;;;;24.45;34.64;98790.72;5054660;28;20039;-61
2022/07/20 10:11:24;;;;;;;1.00;0.50;;;;;;;24.53;35.09;98795.81;5053454;28;20037;-61
2022/07/20 10:13:51;;;;;;;1.50;0.50;;;;;;;24.49;34.12;98792.72;5054194;28;20033;-62
2022/07/20 10:16:26;;;;;;;0.30;0.30;;;;;;;24.60;33.41;98787.50;5053124;28;20061;-62
2022/07/20 10:18:52;;;;;;;0.85;0.40;;;;;;;24.84;32.94;98774.56;5053050;28;20029;-61
2022/07/20 10:21:38;;;;;;;0.75;0.30;;;;;;;25.26;32.64;98780.84;5053274;28;20022;-62
2022/07/20 10:24:25;;;;;;;0.40;0.30;;;;;;;25.38;32.29;98776.09;5054207;28;20040;-62
2022/07/20 10:26:54;;;;;;;1.52;0.30;;;;;;;24.89;32.75;98758.25;5054048;28;20392;-61
2022/07/20 10:29:30;;;;;;;0.40;0.20;;;;;;;24.57;32.74;98763.31;5054496;28;20044;-61
2022/07/20 10:32:11;;;;;;;1.50;0.38;;;;;;;24.11;33.30;98747.59;5036598;28;20037;-63
2022/07/20 10:34:45;;;;;;;0.38;0.30;;;;;;;24.13;33.80;98752.81;5054327;28;20033;-62
2022/07/20 10:37:39;;;;;;;0.40;0.40;;;;;;;24.01;33.61;98750.94;5052869;28;20374;-60
2022/07/20 10:40:22;;;;;;;0.40;0.30;;;;;;;23.72;33.74;98722.63;5054613;28;20110;-62
2022/07/20 10:43:16;;;;;;;0.35;0.30;;;;;;;23.86;33.60;98748.63;5054067;28;20029;-61
2022/07/20 10:45:43;;;;;;;0.63;0.40;;;;;;;23.58;34.44;98744.72;5053716;28;20029;-63
2022/07/20 10:48:11;;;;;;;0.50;0.40;;;;;;;23.26;34.46;98731.38;5052983;28;20029;-62
2022/07/20 10:50:39;;;;;;;2.65;0.50;;;;;;;22.99;36.06;98733.63;5054320;28;20041;-61
2022/07/20 10:53:10;;;;;;;1.05;0.68;;;;;;;22.92;36.26;98733.75;5054327;28;20040;-61
2022/07/20 10:55:36;;;;;;;2.17;0.52;;;;;;;22.61;36.24;98731.00;5052591;28;20128;-60
2022/07/20 10:58:05;;;;;;;1.75;0.30;;;;;;;22.65;35.60;98731.34;5052049;28;20163;-61
2022/07/20 11:00:34;;;;;;;0.63;0.30;;;;;;;22.75;35.28;98730.81;5053217;28;20049;-61
2022/07/20 11:03:10;;;;;;;1.80;0.30;;;;;;;22.86;34.90;98721.84;5052266;28;20481;-61
2022/07/20 11:05:36;;;;;;;1.70;0.50;;;;;;;23.16;35.24;98718.25;5052573;28;20025;-62
2022/07/20 11:08:08;;;;;;;0.93;0.40;;;;;;;23.48;34.06;98723.44;5052444;28;20029;-62
2022/07/20 11:10:35;;;;;;;2.15;0.30;;;;;;;23.59;33.48;98708.13;5053799;28;20032;-63
2022/07/20 11:13:05;;;;;;;2.83;0.40;;;;;;;23.89;33.19;98720.84;5052217;28;20464;-61
2022/07/20 11:15:37;;;;;;;0.52;0.40;;;;;;;24.06;33.41;98720.13;5053474;28;20429;-60
2022/07/20 11:18:04;;;;;;;1.73;0.50;;;;;;;24.10;32.67;98718.56;5053435;28;20103;-62
2022/07/20 11:20:29;;;;;;;0.47;0.30;;;;;;;24.26;31.81;98717.03;5053153;28;20029;-62
2022/07/20 11:23:00;;;;;;;0.77;0.43;;;;;;;24.55;31.63;98729.91;5053312;28;20052;-61
2022/07/20 11:25:27;;;;;;;1.88;0.30;;;;;;;24.77;30.47;98717.22;5053185;28;20037;-61
2022/07/20 11:28:01;;;;;;;0.40;0.20;;;;;;;25.11;31.00;98724.69;5053286;28;20116;-62
2022/07/20 11:30:34;;;;;;;2.17;0.50;;;;;;;25.31;30.33;98715.97;5051992;28;20044;-61
2022/07/20 11:33:00;;;;;;;1.20;0.28;;;;;;;25.39;30.61;98712.00;5051821;28;20036;-62
2022/07/20 11:35:26;;;;;;;0.40;0.40;;;;;;;25.52;30.69;98719.09;5053138;28;20033;-62